Time,TemperatureF,DewpointF,PressureIn,WindDirection,WindDirectionDegrees,WindSpeedMPH,WindSpeedGustMPH,Humidity,HourlyPrecipIn,Conditions,Clouds,dailyrainin,SoftwareType,DateUTC
2013-08-01 00:13:00,67.0,-99.9,-100.00,North,350,4.0,6.0,-999,-99.99,,,-99.99,,2013-08-01 04:13:00,
2013-08-01 00:22:00,67.0,-99.9,-100.00,North,350,4.0,6.0,-999,-99.99,,,-99.99,,2013-08-01 04:22:00,
2013-08-01 00:33:00,66.0,-99.9,-100.00,South,178,5.0,6.0,-999,-99.99,,,-99.99,,2013-08-01 04:33:00,
2013-08-01 00:43:00,66.0,-99.9,-100.00,South,178,5.0,6.0,-999,-99.99,,,-99.99,,2013-08-01 04:43:00,
2013-08-01 01:03:00,66.0,-99.9,-100.00,South,178,5.0,6.0,-999,-99.99,,,-99.99,,2013-08-01 05:03:00,
2013-08-01 01:13:00,66.0,-99.9,-100.00,South,178,5.0,6.0,-999,-99.99,,,-99.99,,2013-08-01 05:13:00,
2013-08-01 01:33:00,67.0,-99.9,-100.00,SW,223,6.0,10.0,-999,-99.99,,,-99.99,,2013-08-01 05:33:00,
2013-08-01 01:53:00,67.0,-99.9,-100.00,SW,223,6.0,10.0,-999,-99.99,,,-99.99,,2013-08-01 05:53:00,
2013-08-01 02:02:00,67.0,-99.9,-100.00,SW,223,6.0,10.0,-999,-99.99,,,-99.99,,2013-08-01 06:02:00,
2013-08-01 02:13:00,67.0,-99.9,-100.00,SW,223,6.0,10.0,-999,-99.99,,,-99.99,,2013-08-01 06:13:00,
2013-08-01 02:23:00,67.0,-99.9,-100.00,SSW,212,7.0,11.0,-999,-99.99,,,-99.99,,2013-08-01 06:23:00,
2013-08-01 02:33:00,67.0,-99.9,-100.00,SSW,212,7.0,11.0,-999,-99.99,,,-99.99,,2013-08-01 06:33:00,
2013-08-01 02:43:00,67.0,-99.9,-100.00,SSW,212,7.0,11.0,-999,-99.99,,,-99.99,,2013-08-01 06:43:00,
2013-08-01 03:03:00,67.0,-99.9,-100.00,SSW,212,7.0,11.0,-999,-99.99,,,-99.99,,2013-08-01 07:03:00,
2013-08-01 03:12:00,67.0,-99.9,-100.00,SSW,212,7.0,11.0,-999,-99.99,,,-99.99,,2013-08-01 07:12:00,
2013-08-01 03:23:00,67.0,-99.9,-100.00,WSW,247,8.0,11.0,-999,-99.99,,,-99.99,,2013-08-01 07:23:00,
2013-08-01 03:33:00,67.0,-99.9,-100.00,WSW,247,8.0,11.0,-999,-99.99,,,-99.99,,2013-08-01 07:33:00,
2013-08-01 03:43:00,67.0,-99.9,-100.00,WSW,247,8.0,11.0,-999,-99.99,,,-99.99,,2013-08-01 07:43:00,
2013-08-01 03:57:00,67.0,-99.9,-100.00,WSW,247,8.0,11.0,-999,-99.99,,,-99.99,,2013-08-01 07:57:00,
2013-08-01 04:10:00,67.0,-99.9,-100.00,WSW,247,8.0,11.0,-999,-99.99,,,-99.99,,2013-08-01 08:10:00,
2013-08-01 04:18:00,67.0,-99.9,-100.00,WSW,247,8.0,11.0,-999,-99.99,,,-99.99,,2013-08-01 08:18:00,
2013-08-01 04:29:00,67.0,-99.9,-100.00,WSW,252,5.0,11.0,-999,-99.99,,,-99.99,,2013-08-01 08:29:00,
2013-08-01 04:43:00,67.0,-99.9,-100.00,WSW,252,5.0,11.0,-999,-99.99,,,-99.99,,2013-08-01 08:43:00,
2013-08-01 04:49:00,67.0,-99.9,-100.00,WSW,252,5.0,11.0,-999,-99.99,,,-99.99,,2013-08-01 08:49:00,
2013-08-01 05:25:00,67.0,-99.9,-100.00,WSW,252,5.0,11.0,-999,-99.99,,,-99.99,,2013-08-01 09:25:00,
2013-08-01 06:04:00,67.0,-99.9,-100.00,North,-999,0.0,7.0,-999,-99.99,,,-99.99,,2013-08-01 10:04:00,
2013-08-01 06:37:00,67.0,-99.9,-100.00,North,-999,0.0,7.0,-999,-99.99,,,-99.99,,2013-08-01 10:37:00,
2013-08-01 07:20:00,66.0,-99.9,-100.00,SSW,202,2.0,3.0,-999,-99.99,,,-99.99,,2013-08-01 11:20:00,
2013-08-01 07:23:00,66.0,-99.9,-100.00,North,-999,0.0,5.0,-999,-99.99,,,-99.99,,2013-08-01 11:23:00,
2013-08-01 07:48:00,66.0,-99.9,-100.00,SSW,202,2.0,3.0,-999,-99.99,,,-99.99,,2013-08-01 11:48:00,
2013-08-01 08:12:00,66.0,-99.9,-100.00,SSW,202,2.0,3.0,-999,-99.99,,,-99.99,,2013-08-01 12:12:00,
2013-08-01 08:35:00,66.0,-99.9,-100.00,SSW,202,2.0,3.0,-999,-99.99,,,-99.99,,2013-08-01 12:35:00,
2013-08-01 08:42:00,66.0,-99.9,-100.00,SSW,202,2.0,3.0,-999,-99.99,,,-99.99,,2013-08-01 12:42:00,
2013-08-01 09:10:00,68.0,-99.9,-100.00,West,270,5.0,11.0,-999,-99.99,,,-99.99,,2013-08-01 13:10:00,
2013-08-01 09:19:00,67.0,-99.9,-100.00,WSW,256,5.0,7.0,-999,-99.99,,,-99.99,,2013-08-01 13:19:00,
2013-08-01 09:48:00,67.0,-99.9,-100.00,WSW,256,5.0,7.0,-999,-99.99,,,-99.99,,2013-08-01 13:48:00,
2013-08-01 11:26:00,69.0,-99.9,-100.00,North,-999,0.0,9.0,-999,-99.99,,,-99.99,,2013-08-01 15:26:00,
2013-08-01 11:42:00,72.0,-99.9,-100.00,North,-999,0.0,0.0,-999,-99.99,,,-99.99,,2013-08-01 15:42:00,
2013-08-01 12:14:00,72.0,-99.9,-100.00,North,-999,0.0,0.0,-999,-99.99,,,-99.99,,2013-08-01 16:14:00,
2013-08-01 12:24:00,72.0,-99.9,-100.00,North,-999,0.0,0.0,-999,-99.99,,,-99.99,,2013-08-01 16:24:00,
2013-08-01 12:36:00,72.0,-99.9,-100.00,North,-999,0.0,0.0,-999,-99.99,,,-99.99,,2013-08-01 16:36:00,
2013-08-01 12:47:00,75.0,-99.9,-100.00,SW,228,1.0,4.0,-999,-99.99,,,-99.99,,2013-08-01 16:47:00,
2013-08-01 13:02:00,75.0,-99.9,-100.00,SW,228,1.0,4.0,-999,-99.99,,,-99.99,,2013-08-01 17:02:00,
2013-08-01 13:22:00,75.0,-99.9,-100.00,SW,228,1.0,4.0,-999,-99.99,,,-99.99,,2013-08-01 17:22:00,
2013-08-01 14:14:00,71.0,-99.9,-100.00,WSW,255,6.0,7.0,-999,-99.99,,,-99.99,,2013-08-01 18:14:00,
2013-08-01 14:19:00,71.0,-99.9,-100.00,WSW,255,6.0,7.0,-999,-99.99,,,-99.99,,2013-08-01 18:19:00,
2013-08-01 14:20:00,69.0,-99.9,-100.00,West,271,4.0,7.0,-999,-99.99,,,-99.99,,2013-08-01 18:20:00,
2013-08-01 15:03:00,69.0,-99.9,-100.00,West,271,4.0,7.0,-999,-99.99,,,-99.99,,2013-08-01 19:03:00,
2013-08-01 15:26:00,69.0,-99.9,-100.00,West,271,4.0,7.0,-999,-99.99,,,-99.99,,2013-08-01 19:26:00,
2013-08-01 16:04:00,70.0,-99.9,-100.00,West,260,4.0,7.0,-999,-99.99,,,-99.99,,2013-08-01 20:04:00,
2013-08-01 16:19:00,70.0,-99.9,-100.00,West,260,4.0,7.0,-999,-99.99,,,-99.99,,2013-08-01 20:19:00,
2013-08-01 16:30:00,69.0,-99.9,-100.00,WNW,284,5.0,7.0,-999,-99.99,,,-99.99,,2013-08-01 20:30:00,
2013-08-01 16:59:00,69.0,-99.9,-100.00,WNW,284,5.0,7.0,-999,-99.99,,,-99.99,,2013-08-01 20:59:00,
2013-08-01 17:14:00,69.0,-99.9,-100.00,WNW,284,5.0,7.0,-999,-99.99,,,-99.99,,2013-08-01 21:14:00,
2013-08-01 17:35:00,71.0,-99.9,-100.00,NW,311,4.0,5.0,-999,-99.99,,,-99.99,,2013-08-01 21:35:00,
2013-08-01 17:43:00,71.0,-99.9,-100.00,NW,311,4.0,5.0,-999,-99.99,,,-99.99,,2013-08-01 21:43:00,
2013-08-01 17:54:00,71.0,-99.9,-100.00,NW,311,4.0,6.0,-999,-99.99,,,-99.99,,2013-08-01 21:54:00,
2013-08-01 18:13:00,71.0,-99.9,-100.00,NW,311,4.0,6.0,-999,-99.99,,,-99.99,,2013-08-01 22:13:00,
2013-08-01 18:36:00,72.0,-99.9,-100.00,NNW,327,3.0,4.0,-999,-99.99,,,-99.99,,2013-08-01 22:36:00,
2013-08-01 18:50:00,72.0,-99.9,-100.00,NNW,327,3.0,4.0,-999,-99.99,,,-99.99,,2013-08-01 22:50:00,
2013-08-01 19:02:00,72.0,-99.9,-100.00,NNW,327,3.0,4.0,-999,-99.99,,,-99.99,,2013-08-01 23:02:00,
2013-08-01 19:13:00,72.0,-99.9,-100.00,NNW,327,3.0,4.0,-999,-99.99,,,-99.99,,2013-08-01 23:13:00,
2013-08-01 19:33:00,72.0,-99.9,-100.00,NW,326,3.0,4.0,-999,-99.99,,,-99.99,,2013-08-01 23:33:00,
2013-08-01 19:54:00,72.0,-99.9,-100.00,NW,326,3.0,4.0,-999,-99.99,,,-99.99,,2013-08-01 23:54:00,
2013-08-01 20:09:00,72.0,-99.9,-100.00,NW,326,3.0,4.0,-999,-99.99,,,-99.99,,2013-08-02 00:09:00,
2013-08-01 20:19:00,72.0,-99.9,-100.00,NW,326,3.0,4.0,-999,-99.99,,,-99.99,,2013-08-02 00:19:00,
2013-08-01 20:32:00,73.0,-99.9,-100.00,North,-999,0.0,3.0,-999,-99.99,,,-99.99,,2013-08-02 00:32:00,
2013-08-01 20:43:00,73.0,-99.9,-100.00,North,-999,0.0,3.0,-999,-99.99,,,-99.99,,2013-08-02 00:43:00,
2013-08-01 21:02:00,73.0,-99.9,-100.00,North,-999,0.0,3.0,-999,-99.99,,,-99.99,,2013-08-02 01:02:00,
2013-08-01 21:08:00,73.0,-99.9,-100.00,North,-999,0.0,3.0,-999,-99.99,,,-99.99,,2013-08-02 01:08:00,
2013-08-01 21:20:00,73.0,-99.9,-100.00,North,-999,0.0,3.0,-999,-99.99,,,-99.99,,2013-08-02 01:20:00,
2013-08-01 21:32:00,71.0,-99.9,-100.00,North,-999,0.0,0.0,-999,-99.99,,,-99.99,,2013-08-02 01:32:00,
2013-08-01 21:44:00,71.0,-99.9,-100.00,North,-999,0.0,0.0,-999,-99.99,,,-99.99,,2013-08-02 01:44:00,
2013-08-01 21:52:00,71.0,-99.9,-100.00,North,-999,0.0,0.0,-999,-99.99,,,-99.99,,2013-08-02 01:52:00,
2013-08-01 22:04:00,71.0,-99.9,-100.00,North,-999,0.0,0.0,-999,-99.99,,,-99.99,,2013-08-02 02:04:00,
2013-08-01 22:45:00,67.0,-99.9,-100.00,North,-999,0.0,5.0,-999,-99.99,,,-99.99,,2013-08-02 02:45:00,
2013-08-01 23:00:00,67.0,-99.9,-100.00,SSE,163,3.0,6.0,-999,-99.99,,,-99.99,,2013-08-02 03:00:00,
2013-08-01 23:12:00,67.0,-99.9,-100.00,North,-999,0.0,5.0,-999,-99.99,,,-99.99,,2013-08-02 03:12:00,
2013-08-01 23:42:00,67.0,-99.9,-100.00,SSE,163,3.0,6.0,-999,-99.99,,,-99.99,,2013-08-02 03:42:00,
2013-08-01 23:54:00,67.0,-99.9,-100.00,SSE,163,3.0,6.0,-999,-99.99,,,-99.99,,2013-08-02 03:54:00,